createdAt,value
2023-05-01T00:01:43.349Z,101157.81
2023-05-01T00:04:10.250Z,101155.25
2023-05-01T00:06:39.937Z,101160.91
2023-05-01T00:09:07.535Z,101166.09
2023-05-01T00:11:35.107Z,101156.31
2023-05-01T00:14:01.733Z,101157.44
2023-05-01T00:16:28.268Z,101159.44
2023-05-01T00:18:55.264Z,101152.09
2023-05-01T00:21:24.862Z,101155.50
2023-05-01T00:23:52.042Z,101150.13
2023-05-01T00:26:18.562Z,101150.47
2023-05-01T00:28:47.342Z,101142.56
2023-05-01T00:31:13.926Z,101150.69
2023-05-01T00:33:40.690Z,101142.84
2023-05-01T00:36:07.211Z,101142.25
2023-05-01T00:38:33.861Z,101145.34
2023-05-01T00:41:00.510Z,101140.09
2023-05-01T00:43:27.166Z,101134.97
2023-05-01T00:45:53.769Z,101129.66
2023-05-01T00:48:20.773Z,101120.50
2023-05-01T00:50:47.726Z,101124.13
2023-05-01T00:53:14.565Z,101115.31
2023-05-01T00:55:42.015Z,101103.75
2023-05-01T00:58:08.949Z,101108.81
2023-05-01T01:00:35.522Z,101102.75
2023-05-01T01:03:02.508Z,101096.66
2023-05-01T01:05:30.396Z,101102.94
2023-05-01T01:08:00.000Z,101092.50
2023-05-01T01:10:46.491Z,101087.50
2023-05-01T01:13:20.290Z,101087.47
2023-05-01T01:15:46.950Z,101085.69
2023-05-01T01:18:19.267Z,101072.38
2023-05-01T01:21:07.498Z,101084.59
2023-05-01T01:23:43.185Z,101082.91
2023-05-01T01:26:38.829Z,101087.53
2023-05-01T01:29:37.998Z,101084.16
2023-05-01T01:32:11.996Z,101089.72
2023-05-01T01:34:47.725Z,101087.31
2023-05-01T01:37:17.766Z,101079.97
2023-05-01T01:40:04.358Z,101079.59
2023-05-01T01:42:36.217Z,101072.75
2023-05-01T01:45:05.234Z,101081.38
2023-05-01T01:47:33.255Z,101081.47
2023-05-01T01:50:04.193Z,101077.72
2023-05-01T01:52:31.374Z,101065.25
2023-05-01T01:55:05.303Z,101066.75
2023-05-01T01:57:32.466Z,101060.91
2023-05-01T01:59:59.107Z,101056.75
2023-05-01T02:02:27.600Z,101057.84
2023-05-01T02:04:57.214Z,101043.72
2023-05-01T02:07:28.650Z,101046.16
2023-05-01T02:09:56.526Z,101040.81
2023-05-01T02:12:23.534Z,101035.38
2023-05-01T02:14:51.690Z,101042.28
2023-05-01T02:17:20.519Z,101034.63
2023-05-01T02:19:48.139Z,101037.81
2023-05-01T02:22:15.856Z,101038.00
2023-05-01T02:24:43.898Z,101035.44
2023-05-01T02:27:31.002Z,101030.94
2023-05-01T02:29:57.982Z,101032.53
2023-05-01T02:32:25.285Z,101030.53
2023-05-01T02:34:52.430Z,101032.59
2023-05-01T02:37:19.303Z,101018.66
2023-05-01T02:39:46.481Z,101021.25
2023-05-01T02:42:16.111Z,101015.19
2023-05-01T02:44:45.657Z,101016.78
2023-05-01T02:47:15.922Z,101006.06
2023-05-01T02:49:46.216Z,101004.50
2023-05-01T02:52:13.015Z,101004.78
2023-05-01T02:54:39.920Z,101002.09
2023-05-01T02:57:06.612Z,100996.81
2023-05-01T02:59:34.386Z,100992.00
2023-05-01T03:02:01.202Z,100987.81
2023-05-01T03:04:27.912Z,100978.03
2023-05-01T03:06:55.150Z,100968.28
2023-05-01T03:09:22.164Z,100967.41
2023-05-01T03:11:48.996Z,100970.59
2023-05-01T03:14:15.580Z,100965.25
2023-05-01T03:16:42.539Z,100951.19
2023-05-01T03:19:09.355Z,100960.06
2023-05-01T03:21:37.046Z,100964.72
2023-05-01T03:24:03.731Z,100959.66
2023-05-01T03:26:31.154Z,100958.78
2023-05-01T03:28:58.443Z,100958.06
2023-05-01T03:31:26.148Z,100950.34
2023-05-01T03:33:53.534Z,100946.78
2023-05-01T03:36:20.214Z,100944.03
2023-05-01T03:38:48.132Z,100942.22
2023-05-01T03:41:33.363Z,100943.09
2023-05-01T03:44:09.711Z,100952.94
2023-05-01T03:46:39.796Z,100940.53
2023-05-01T03:49:09.016Z,100942.25
2023-05-01T03:51:43.400Z,100938.75
2023-05-01T03:54:10.470Z,100946.00
2023-05-01T03:56:53.264Z,100945.03
2023-05-01T03:59:20.712Z,100949.34
2023-05-01T04:01:47.263Z,100935.25
2023-05-01T04:04:14.104Z,100935.19
2023-05-01T04:06:45.237Z,100937.59
2023-05-01T04:09:12.387Z,100938.75
2023-05-01T04:11:38.936Z,100941.31
2023-05-01T04:14:05.568Z,100938.88
2023-05-01T04:16:32.441Z,100934.66
2023-05-01T04:18:59.128Z,100935.56
2023-05-01T04:21:26.801Z,100928.38
2023-05-01T04:23:53.639Z,100932.91
2023-05-01T04:26:20.479Z,100935.47
2023-05-01T04:28:47.157Z,100926.75
2023-05-01T04:31:17.359Z,100923.81
2023-05-01T04:33:44.000Z,100925.56
2023-05-01T04:36:10.582Z,100921.03
2023-05-01T04:38:37.426Z,100919.00
2023-05-01T04:41:05.103Z,100913.91
2023-05-01T04:43:31.763Z,100914.47
2023-05-01T04:45:59.138Z,100910.81
2023-05-01T04:48:26.392Z,100902.91
2023-05-01T04:50:53.063Z,100902.81
2023-05-01T04:53:20.282Z,100899.34
2023-05-01T04:55:47.407Z,100901.97
2023-05-01T04:58:15.949Z,100898.97
2023-05-01T05:00:44.256Z,100893.38
2023-05-01T05:03:19.761Z,100891.78
2023-05-01T05:05:47.007Z,100881.41
2023-05-01T05:08:13.648Z,100880.97
2023-05-01T05:10:45.876Z,100879.75
2023-05-01T05:13:26.037Z,100880.22
2023-05-01T05:16:01.802Z,100878.47
2023-05-01T05:18:28.703Z,100873.06
2023-05-01T05:20:56.542Z,100867.81
2023-05-01T05:23:23.689Z,100865.97
2023-05-01T05:25:50.233Z,100863.19
2023-05-01T05:28:17.245Z,100867.38
2023-05-01T05:30:44.378Z,100863.69
2023-05-01T05:33:15.144Z,100860.38
2023-05-01T05:35:41.994Z,100861.72
2023-05-01T05:38:08.676Z,100866.19
2023-05-01T05:40:37.932Z,100854.97
2023-05-01T05:43:05.096Z,100854.81
2023-05-01T05:45:35.245Z,100855.19
2023-05-01T05:48:02.244Z,100855.34
2023-05-01T05:50:31.773Z,100852.28
2023-05-01T05:52:58.812Z,100852.00
2023-05-01T05:55:26.186Z,100849.50
2023-05-01T05:58:03.512Z,100852.16
2023-05-01T06:00:30.549Z,100849.91
2023-05-01T06:03:00.675Z,100847.84
2023-05-01T06:05:32.079Z,100837.66
2023-05-01T06:07:58.706Z,100839.91
2023-05-01T06:10:25.334Z,100848.25
2023-05-01T06:12:57.664Z,100835.09
2023-05-01T06:15:39.888Z,100842.59
2023-05-01T06:18:14.406Z,100845.44
2023-05-01T06:20:41.188Z,100842.53
2023-05-01T06:23:09.753Z,100839.38
2023-05-01T06:26:00.404Z,100841.88
2023-05-01T06:28:27.037Z,100837.44
2023-05-01T06:30:54.780Z,100828.94
2023-05-01T06:33:22.686Z,100826.69
2023-05-01T06:36:01.025Z,100833.72
2023-05-01T06:38:27.659Z,100827.47
2023-05-01T06:40:54.366Z,100828.75
2023-05-01T06:43:21.052Z,100824.91
2023-05-01T06:45:47.694Z,100817.75
2023-05-01T06:48:14.346Z,100825.97
2023-05-01T06:50:40.983Z,100824.00
2023-05-01T06:53:07.634Z,100826.75
2023-05-01T06:55:35.839Z,100813.16
2023-05-01T06:58:07.009Z,100814.66
2023-05-01T07:00:43.085Z,100815.25
2023-05-01T07:03:09.890Z,100812.31
2023-05-01T07:05:45.833Z,100810.19
2023-05-01T07:08:14.484Z,100802.19
2023-05-01T07:10:43.806Z,100796.16
2023-05-01T07:13:10.540Z,100802.84
2023-05-01T07:15:37.311Z,100797.28
2023-05-01T07:18:06.193Z,100796.56
2023-05-01T07:20:35.481Z,100794.47
2023-05-01T07:23:06.614Z,100791.81
2023-05-01T07:25:34.013Z,100792.91
2023-05-01T07:28:02.848Z,100792.31
2023-05-01T07:30:30.473Z,100786.94
2023-05-01T07:33:00.341Z,100789.63
2023-05-01T07:35:27.509Z,100784.16
2023-05-01T07:38:03.640Z,100776.25
2023-05-01T07:40:32.697Z,100781.28
2023-05-01T07:42:59.382Z,100778.34
2023-05-01T07:45:26.007Z,100772.34
2023-05-01T07:47:57.166Z,100770.78
2023-05-01T07:50:25.109Z,100765.94
2023-05-01T07:52:51.818Z,100768.56
2023-05-01T07:55:19.283Z,100761.25
2023-05-01T07:57:45.838Z,100759.53
2023-05-01T08:00:12.629Z,100756.91
2023-05-01T08:02:41.787Z,100756.47
2023-05-01T08:05:08.601Z,100754.41
2023-05-01T08:07:38.151Z,100745.69
2023-05-01T08:10:05.461Z,100743.81
2023-05-01T08:12:32.330Z,100739.66
2023-05-01T08:14:58.992Z,100740.03
2023-05-01T08:17:28.055Z,100731.91
2023-05-01T08:19:59.099Z,100740.84
2023-05-01T08:22:25.896Z,100736.78
2023-05-01T08:24:52.499Z,100729.50
2023-05-01T08:27:19.194Z,100735.81
2023-05-01T08:29:48.980Z,100732.59
2023-05-01T08:32:15.739Z,100729.91
2023-05-01T08:34:42.334Z,100723.31
2023-05-01T08:37:08.906Z,100723.38
2023-05-01T08:39:36.052Z,100719.53
2023-05-01T08:42:03.554Z,100713.22
2023-05-01T08:44:30.759Z,100715.41
2023-05-01T08:47:18.850Z,100715.53
2023-05-01T08:49:46.015Z,100705.94
2023-05-01T08:52:13.291Z,100711.88
2023-05-01T08:54:44.128Z,100705.13
2023-05-01T08:57:14.229Z,100694.94
2023-05-01T08:59:41.839Z,100701.28
2023-05-01T09:02:11.267Z,100704.38
2023-05-01T09:04:39.182Z,100703.53
2023-05-01T09:07:06.034Z,100696.28
2023-05-01T09:09:33.066Z,100692.19
2023-05-01T09:12:03.313Z,100698.81
2023-05-01T09:14:31.451Z,100693.25
2023-05-01T09:16:59.089Z,100691.44
2023-05-01T09:19:26.437Z,100698.41
2023-05-01T09:21:56.262Z,100693.28
2023-05-01T09:24:26.004Z,100688.63
2023-05-01T09:26:57.636Z,100684.28
2023-05-01T09:29:41.000Z,100681.91
2023-05-01T09:32:20.464Z,100681.06
2023-05-01T09:34:48.315Z,100677.41
2023-05-01T09:37:28.455Z,100670.56
2023-05-01T09:40:02.760Z,100663.25
2023-05-01T09:42:30.228Z,100665.13
2023-05-01T09:44:59.215Z,100661.41
2023-05-01T09:47:28.674Z,100661.25
2023-05-01T09:49:56.273Z,100660.41
2023-05-01T09:52:26.723Z,100651.63
2023-05-01T09:55:13.159Z,100654.44
2023-05-01T09:57:40.069Z,100647.44
2023-05-01T10:00:08.637Z,100645.78
2023-05-01T10:02:36.226Z,100651.63
2023-05-01T10:05:03.472Z,100645.03
2023-05-01T10:07:33.423Z,100640.84
2023-05-01T10:10:15.070Z,100640.66
2023-05-01T10:12:41.721Z,100636.19
2023-05-01T10:15:21.109Z,100634.63
2023-05-01T10:17:52.464Z,100625.31
2023-05-01T10:20:19.774Z,100633.38
2023-05-01T10:22:46.741Z,100628.72
2023-05-01T10:25:13.492Z,100623.84
2023-05-01T10:27:41.108Z,100625.53
2023-05-01T10:30:10.988Z,100610.81
2023-05-01T10:32:38.821Z,100613.84
2023-05-01T10:35:25.696Z,100608.41
2023-05-01T10:38:02.533Z,100617.47
2023-05-01T10:40:48.301Z,100600.78
2023-05-01T10:43:19.540Z,100599.50
2023-05-01T10:45:47.870Z,100588.16
2023-05-01T10:48:33.407Z,100590.75
2023-05-01T10:51:20.425Z,100584.19
2023-05-01T10:53:48.520Z,100584.31
2023-05-01T10:56:30.091Z,100576.75
2023-05-01T10:58:58.969Z,100576.31
2023-05-01T11:01:25.686Z,100581.03
2023-05-01T11:03:52.309Z,100576.66
2023-05-01T11:06:18.985Z,100566.69
2023-05-01T11:08:46.529Z,100565.50
2023-05-01T11:11:25.073Z,100562.50
2023-05-01T11:14:01.624Z,100559.16
2023-05-01T11:16:37.856Z,100558.34
2023-05-01T11:19:04.885Z,100552.19
2023-05-01T11:21:34.081Z,100539.94
2023-05-01T11:24:04.215Z,100536.91
2023-05-01T11:26:32.513Z,100538.53
2023-05-01T11:28:59.904Z,100536.84
2023-05-01T11:31:27.111Z,100529.56
2023-05-01T11:33:56.504Z,100530.47
2023-05-01T11:36:23.092Z,100523.31
2023-05-01T11:38:53.578Z,100521.81
2023-05-01T11:41:23.710Z,100518.19
2023-05-01T11:43:58.221Z,100525.00
2023-05-01T11:46:29.244Z,100519.25
2023-05-01T11:48:56.771Z,100509.97
2023-05-01T11:51:24.969Z,100503.94
2023-05-01T11:53:59.566Z,100512.13
2023-05-01T11:56:27.409Z,100504.09
2023-05-01T11:58:55.121Z,100510.88
2023-05-01T12:01:21.784Z,100505.41
2023-05-01T12:03:48.573Z,100509.81
2023-05-01T12:06:15.643Z,100501.63
2023-05-01T12:08:47.521Z,100507.28
2023-05-01T12:11:14.253Z,100495.75
2023-05-01T12:13:41.929Z,100499.38
2023-05-01T12:16:09.512Z,100501.00
2023-05-01T12:18:36.310Z,100492.53
2023-05-01T12:21:03.279Z,100496.91
2023-05-01T12:23:31.410Z,100487.47
2023-05-01T12:28:38.834Z,100479.38
2023-05-01T12:31:06.248Z,100479.00
2023-05-01T12:33:33.321Z,100479.88
2023-05-01T12:36:09.299Z,100477.41
2023-05-01T12:38:36.027Z,100465.72
2023-05-01T12:41:02.745Z,100474.94
2023-05-01T12:43:34.252Z,100467.63
2023-05-01T12:46:10.325Z,100480.81
2023-05-01T12:48:41.451Z,100473.91
2023-05-01T12:51:17.936Z,100477.81
2023-05-01T12:53:44.633Z,100473.53
2023-05-01T12:56:24.050Z,100472.84
2023-05-01T12:58:52.130Z,100465.38
2023-05-01T13:01:29.903Z,100468.25
2023-05-01T13:03:58.030Z,100469.31
2023-05-01T13:06:32.497Z,100455.31
2023-05-01T13:09:10.550Z,100460.72
2023-05-01T13:11:37.862Z,100447.94
2023-05-01T13:14:11.536Z,100448.06
2023-05-01T13:16:46.415Z,100444.31
2023-05-01T13:19:14.316Z,100449.56
2023-05-01T13:21:50.408Z,100445.91
2023-05-01T13:24:17.144Z,100446.31
2023-05-01T13:26:45.155Z,100438.94
2023-05-01T13:29:20.503Z,100443.06
2023-05-01T13:31:47.126Z,100436.16
2023-05-01T13:34:17.317Z,100437.97
2023-05-01T13:36:44.232Z,100426.66
2023-05-01T13:39:11.776Z,100422.22
2023-05-01T13:41:42.356Z,100428.63
2023-05-01T13:44:09.200Z,100430.66
2023-05-01T13:46:36.209Z,100432.88
2023-05-01T13:49:04.816Z,100430.19
2023-05-01T13:51:32.609Z,100425.78
2023-05-01T13:53:59.296Z,100425.16
2023-05-01T13:56:26.184Z,100419.56
2023-05-01T13:58:52.856Z,100426.94
2023-05-01T14:01:20.810Z,100421.31
2023-05-01T14:03:48.443Z,100426.31
2023-05-01T14:06:16.295Z,100424.19
2023-05-01T14:08:49.229Z,100419.09
2023-05-01T14:11:16.329Z,100421.81
2023-05-01T14:13:44.181Z,100419.00
2023-05-01T14:16:23.090Z,100413.66
2023-05-01T14:18:49.693Z,100409.31
2023-05-01T14:21:17.099Z,100406.38
2023-05-01T14:23:44.314Z,100402.50
2023-05-01T14:26:11.829Z,100409.31
2023-05-01T14:28:48.153Z,100401.63
2023-05-01T14:31:25.406Z,100403.72
2023-05-01T14:33:54.164Z,100396.81
2023-05-01T14:36:23.334Z,100396.81
2023-05-01T14:38:50.813Z,100392.72
2023-05-01T14:41:18.203Z,100405.16
2023-05-01T14:43:45.423Z,100397.75
2023-05-01T14:46:12.831Z,100394.38
2023-05-01T14:48:45.611Z,100388.38
2023-05-01T14:51:12.631Z,100387.63
2023-05-01T14:53:45.247Z,100382.00
2023-05-01T14:56:14.950Z,100386.34
2023-05-01T14:58:44.605Z,100382.22
2023-05-01T15:01:11.349Z,100379.19
2023-05-01T15:03:45.203Z,100376.06
2023-05-01T15:06:12.048Z,100378.69
2023-05-01T15:08:38.833Z,100375.28
2023-05-01T15:11:16.445Z,100379.00
2023-05-01T15:13:44.271Z,100376.09
2023-05-01T15:16:13.912Z,100381.34
2023-05-01T15:18:43.528Z,100376.53
2023-05-01T15:21:10.393Z,100377.03
2023-05-01T15:23:37.236Z,100373.91
2023-05-01T15:26:03.973Z,100378.47
2023-05-01T15:28:30.669Z,100373.91
2023-05-01T15:30:57.241Z,100365.72
2023-05-01T15:33:27.248Z,100369.56
2023-05-01T15:35:54.047Z,100364.69
2023-05-01T15:38:21.662Z,100376.06
2023-05-01T15:40:50.098Z,100365.78
2023-05-01T15:43:21.133Z,100366.28
2023-05-01T15:45:47.837Z,100369.81
2023-05-01T15:48:14.511Z,100365.84
2023-05-01T15:50:43.333Z,100363.03
2023-05-01T15:53:09.852Z,100365.59
2023-05-01T15:55:43.842Z,100358.75
2023-05-01T15:58:10.454Z,100361.44
2023-05-01T16:00:39.633Z,100365.59
2023-05-01T16:03:07.616Z,100358.81
2023-05-01T16:05:36.625Z,100360.47
2023-05-01T16:08:05.320Z,100363.53
2023-05-01T16:10:36.903Z,100360.28
2023-05-01T16:13:07.119Z,100370.81
2023-05-01T16:15:34.059Z,100364.63
2023-05-01T16:18:03.966Z,100360.53
2023-05-01T16:20:35.031Z,100361.66
2023-05-01T16:23:01.719Z,100372.66
2023-05-01T16:25:28.309Z,100364.47
2023-05-01T16:27:54.956Z,100372.03
2023-05-01T16:30:24.629Z,100365.63
2023-05-01T16:32:51.402Z,100365.97
2023-05-01T16:35:21.050Z,100369.84
2023-05-01T16:37:47.761Z,100370.56
2023-05-01T16:40:18.084Z,100371.22
2023-05-01T16:42:52.072Z,100365.13
2023-05-01T16:45:19.520Z,100376.69
2023-05-01T16:47:46.307Z,100368.25
2023-05-01T16:50:14.058Z,100371.94
2023-05-01T16:52:40.780Z,100362.25
2023-05-01T16:55:07.911Z,100369.66
2023-05-01T16:57:34.449Z,100372.91
2023-05-01T17:00:01.521Z,100365.94
2023-05-01T17:02:28.497Z,100370.44
2023-05-01T17:04:55.174Z,100374.84
2023-05-01T17:07:23.000Z,100375.22
2023-05-01T17:09:49.644Z,100376.13
2023-05-01T17:12:16.297Z,100370.66
2023-05-01T17:14:42.964Z,100374.06
2023-05-01T17:17:09.737Z,100369.25
2023-05-01T17:19:38.950Z,100364.03
2023-05-01T17:22:06.311Z,100365.59
2023-05-01T17:24:33.116Z,100360.28
2023-05-01T17:27:05.855Z,100362.88
2023-05-01T17:29:32.575Z,100370.53
2023-05-01T17:31:59.149Z,100364.47
2023-05-01T17:34:25.794Z,100368.88
2023-05-01T17:36:52.634Z,100365.44
2023-05-01T17:39:21.696Z,100365.59
2023-05-01T17:41:49.392Z,100362.31
2023-05-01T17:44:16.239Z,100375.63
2023-05-01T17:46:42.761Z,100362.06
2023-05-01T17:49:10.363Z,100360.13
2023-05-01T17:51:37.397Z,100372.25
2023-05-01T17:54:04.096Z,100369.94
2023-05-01T17:56:33.682Z,100366.88
2023-05-01T17:59:03.207Z,100366.78
2023-05-01T18:01:30.693Z,100362.59
2023-05-01T18:03:57.993Z,100358.81
2023-05-01T18:06:24.810Z,100359.69
2023-05-01T18:08:52.332Z,100357.44
2023-05-01T18:11:18.943Z,100369.00
2023-05-01T18:13:48.663Z,100366.56
2023-05-01T18:16:15.929Z,100364.66
2023-05-01T18:18:42.771Z,100362.91
2023-05-01T18:21:11.557Z,100370.53
2023-05-01T18:23:38.727Z,100372.84
2023-05-01T18:26:05.466Z,100365.38
2023-05-01T18:28:33.498Z,100380.66
2023-05-01T18:31:02.553Z,100381.31
2023-05-01T18:33:31.274Z,100379.78
2023-05-01T18:35:58.335Z,100377.59
2023-05-01T18:38:26.363Z,100383.13
2023-05-01T18:40:54.830Z,100383.31
2023-05-01T18:43:21.506Z,100387.59
2023-05-01T18:45:48.150Z,100385.97
2023-05-01T18:48:22.770Z,100390.97
2023-05-01T18:51:06.718Z,100399.72
2023-05-01T18:53:34.911Z,100400.56
2023-05-01T18:56:01.672Z,100407.78
2023-05-01T18:58:28.242Z,100401.28
2023-05-01T19:00:55.374Z,100401.38
2023-05-01T19:03:21.989Z,100407.38
2023-05-01T19:05:48.622Z,100406.97
2023-05-01T19:08:15.209Z,100407.28
2023-05-01T19:10:42.525Z,100408.47
2023-05-01T19:13:09.114Z,100416.16
2023-05-01T19:15:36.361Z,100412.50
2023-05-01T19:18:05.829Z,100416.13
2023-05-01T19:20:32.887Z,100417.63
2023-05-01T19:22:59.905Z,100418.34
2023-05-01T19:25:26.544Z,100417.03
2023-05-01T19:27:53.115Z,100416.53
2023-05-01T19:30:19.716Z,100412.94
2023-05-01T19:32:46.751Z,100412.03
2023-05-01T19:35:13.508Z,100421.97
2023-05-01T19:37:42.484Z,100418.56
2023-05-01T19:40:09.331Z,100423.47
2023-05-01T19:42:36.560Z,100415.91
2023-05-01T19:45:03.326Z,100425.25
2023-05-01T19:47:29.911Z,100428.97
2023-05-01T19:49:56.709Z,100422.84
2023-05-01T19:52:23.505Z,100426.75
2023-05-01T19:54:50.052Z,100433.78
2023-05-01T19:57:17.369Z,100431.97
2023-05-01T19:59:44.017Z,100429.69
2023-05-01T20:02:10.740Z,100427.69
2023-05-01T20:04:37.446Z,100439.28
2023-05-01T20:07:04.731Z,100434.19
2023-05-01T20:09:31.624Z,100442.19
2023-05-01T20:11:58.240Z,100439.94
2023-05-01T20:14:27.468Z,100451.59
2023-05-01T20:16:54.112Z,100449.69
2023-05-01T20:19:22.180Z,100455.44
2023-05-01T20:21:58.963Z,100451.69
2023-05-01T20:24:26.166Z,100452.72
2023-05-01T20:26:55.904Z,100460.97
2023-05-01T20:29:22.718Z,100481.78
2023-05-01T20:31:51.707Z,100470.03
2023-05-01T20:34:18.809Z,100478.28
2023-05-01T20:36:45.424Z,100467.88
2023-05-01T20:39:12.174Z,100462.56
2023-05-01T20:41:38.736Z,100474.59
2023-05-01T20:44:05.407Z,100477.81
2023-05-01T20:46:32.050Z,100475.66
2023-05-01T20:49:01.126Z,100471.63
2023-05-01T20:51:27.670Z,100474.94
2023-05-01T20:53:57.187Z,100476.56
2023-05-01T20:56:23.922Z,100482.22
2023-05-01T20:58:50.601Z,100485.97
2023-05-01T21:01:17.178Z,100489.41
2023-05-01T21:03:46.454Z,100479.84
2023-05-01T21:06:16.040Z,100474.94
2023-05-01T21:08:42.820Z,100486.25
2023-05-01T21:11:09.417Z,100482.84
2023-05-01T21:13:36.085Z,100483.28
2023-05-01T21:16:02.839Z,100479.88
2023-05-01T21:18:33.020Z,100485.25
2023-05-01T21:21:01.986Z,100481.22
2023-05-01T21:23:29.706Z,100482.28
2023-05-01T21:25:56.458Z,100482.94
2023-05-01T21:28:23.007Z,100484.84
2023-05-01T21:30:49.810Z,100486.19
2023-05-01T21:33:17.576Z,100486.66
2023-05-01T21:35:50.367Z,100491.69
2023-05-01T21:38:16.997Z,100486.47
2023-05-01T21:40:46.130Z,100485.31
2023-05-01T21:43:12.871Z,100488.25
2023-05-01T21:45:42.632Z,100496.44
2023-05-01T21:48:09.804Z,100493.44
2023-05-01T21:50:38.090Z,100499.94
2023-05-01T21:53:06.260Z,100506.09
2023-05-01T21:55:33.587Z,100500.44
2023-05-01T21:58:03.118Z,100501.59
2023-05-01T22:00:30.281Z,100508.81
2023-05-01T22:02:57.312Z,100507.94
2023-05-01T22:05:24.043Z,100507.09
2023-05-01T22:07:54.163Z,100519.69
2023-05-01T22:10:24.018Z,100517.69
2023-05-01T22:12:50.637Z,100516.03
2023-05-01T22:15:20.474Z,100528.25
2023-05-01T22:17:47.170Z,100526.50
2023-05-01T22:20:13.824Z,100530.63
2023-05-01T22:22:41.318Z,100532.84
2023-05-01T22:25:08.618Z,100539.41
2023-05-01T22:27:38.015Z,100545.66
2023-05-01T22:30:07.398Z,100550.94
2023-05-01T22:32:37.227Z,100551.09
2023-05-01T22:35:04.071Z,100556.59
2023-05-01T22:37:30.665Z,100558.38
2023-05-01T22:39:57.521Z,100557.91
2023-05-01T22:42:24.510Z,100560.50
2023-05-01T22:44:51.124Z,100557.94
2023-05-01T22:47:17.994Z,100568.72
2023-05-01T22:49:44.680Z,100571.00
2023-05-01T22:52:11.207Z,100575.06
2023-05-01T22:54:37.792Z,100576.50
2023-05-01T22:57:04.400Z,100581.44
2023-05-01T22:59:31.277Z,100589.94
2023-05-01T23:01:57.888Z,100582.00
2023-05-01T23:04:24.558Z,100593.22
2023-05-01T23:06:51.160Z,100588.22
2023-05-01T23:09:17.975Z,100599.50
2023-05-01T23:11:46.561Z,100602.09
2023-05-01T23:14:16.172Z,100591.25
2023-05-01T23:16:48.063Z,100596.25
2023-05-01T23:19:22.153Z,100594.38
2023-05-01T23:22:15.399Z,100602.66
2023-05-01T23:24:48.288Z,100604.50
2023-05-01T23:27:16.003Z,100606.44
2023-05-01T23:29:46.484Z,100610.44
2023-05-01T23:32:18.286Z,100611.81
2023-05-01T23:34:44.895Z,100616.75
2023-05-01T23:37:11.413Z,100624.72
2023-05-01T23:39:38.058Z,100626.19
2023-05-01T23:42:05.434Z,100636.25
2023-05-01T23:44:31.989Z,100637.03
2023-05-01T23:46:58.634Z,100634.38
2023-05-01T23:49:25.438Z,100632.25
2023-05-01T23:51:51.962Z,100630.63
2023-05-01T23:54:18.586Z,100629.25
2023-05-01T23:56:45.304Z,100629.72
2023-05-01T23:59:11.994Z,100635.63
